createdAt,value
2022-09-01T00:00:15.292Z,6.25
2022-09-01T00:02:44.092Z,6.53
2022-09-01T00:05:13.091Z,6.40
2022-09-01T00:07:40.494Z,6.55
2022-09-01T00:10:08.996Z,6.25
2022-09-01T00:12:37.858Z,6.07
2022-09-01T00:15:07.244Z,6.32
2022-09-01T00:17:34.832Z,5.93
2022-09-01T00:20:02.352Z,5.85
2022-09-01T00:22:30.013Z,6.03
2022-09-01T00:24:57.348Z,5.32
2022-09-01T00:27:27.928Z,6.05
2022-09-01T00:29:59.272Z,5.57
2022-09-01T00:32:27.788Z,5.65
2022-09-01T00:34:55.132Z,6.15
2022-09-01T00:37:22.439Z,5.97
2022-09-01T00:39:49.694Z,5.57
2022-09-01T00:42:17.265Z,5.70
2022-09-01T00:44:44.654Z,5.55
2022-09-01T00:47:14.849Z,5.68
2022-09-01T00:49:45.737Z,5.88
2022-09-01T00:52:16.064Z,5.80
2022-09-01T00:54:51.135Z,5.13
2022-09-01T00:57:18.772Z,5.72
2022-09-01T01:00:06.891Z,6.13
2022-09-01T01:02:34.273Z,5.80
2022-09-01T01:05:03.073Z,6.38
2022-09-01T01:07:30.429Z,5.50
2022-09-01T01:09:57.987Z,5.65
2022-09-01T01:12:28.205Z,5.47
2022-09-01T01:14:57.304Z,6.03
2022-09-01T01:17:25.703Z,5.75
2022-09-01T01:20:17.021Z,5.78
2022-09-01T01:23:02.504Z,5.93
2022-09-01T01:25:34.014Z,5.57
2022-09-01T01:28:18.750Z,5.32
2022-09-01T01:31:01.825Z,6.07
2022-09-01T01:33:35.445Z,5.72
2022-09-01T01:36:03.887Z,5.93
2022-09-01T01:38:31.879Z,5.72
2022-09-01T01:41:00.293Z,5.97
2022-09-01T01:43:29.280Z,6.05
2022-09-01T01:46:02.962Z,5.32
2022-09-01T01:48:41.334Z,5.45
2022-09-01T01:51:10.798Z,5.53
2022-09-01T01:53:39.208Z,5.50
2022-09-01T01:56:09.254Z,5.75
2022-09-01T01:58:37.509Z,6.00
2022-09-01T02:01:12.994Z,5.57
2022-09-01T02:03:41.127Z,5.43
2022-09-01T02:06:12.291Z,5.55
2022-09-01T02:08:42.406Z,5.68
2022-09-01T02:11:10.052Z,5.97
2022-09-01T02:13:37.406Z,5.68
2022-09-01T02:16:13.300Z,5.80
2022-09-01T02:18:48.359Z,5.35
2022-09-01T02:21:22.131Z,5.70
2022-09-01T02:24:02.535Z,5.10
2022-09-01T02:26:39.899Z,5.35
2022-09-01T02:29:18.235Z,5.13
2022-09-01T02:31:48.369Z,5.50
2022-09-01T02:34:17.344Z,5.32
2022-09-01T02:36:49.468Z,5.50
2022-09-01T02:39:26.766Z,5.60
2022-09-01T02:41:54.900Z,5.40
2022-09-01T02:44:28.080Z,5.55
2022-09-01T02:46:56.281Z,5.95
2022-09-01T02:49:28.447Z,5.78
2022-09-01T02:51:59.785Z,5.97
2022-09-01T02:54:28.975Z,5.60
2022-09-01T02:56:56.871Z,5.30
2022-09-01T02:59:29.044Z,5.80
2022-09-01T03:02:01.306Z,5.63
2022-09-01T03:04:35.322Z,5.70
2022-09-01T03:07:07.416Z,5.68
2022-09-01T03:09:35.682Z,5.80
2022-09-01T03:12:04.159Z,5.38
2022-09-01T03:14:32.371Z,5.22
2022-09-01T03:17:01.128Z,5.88
2022-09-01T03:19:32.830Z,5.70
2022-09-01T03:22:13.498Z,5.97
2022-09-01T03:24:44.768Z,6.50
2022-09-01T03:27:12.254Z,6.70
2022-09-01T03:29:41.089Z,6.57
2022-09-01T03:32:09.532Z,6.68
2022-09-01T03:34:39.785Z,6.43
2022-09-01T03:37:10.000Z,6.40
2022-09-01T03:39:38.892Z,5.88
2022-09-01T03:42:09.433Z,6.72
2022-09-01T03:44:42.969Z,5.68
2022-09-01T03:47:15.569Z,5.65
2022-09-01T03:49:45.714Z,6.30
2022-09-01T03:52:13.682Z,5.78
2022-09-01T03:54:41.106Z,5.80
2022-09-01T03:57:10.290Z,6.10
2022-09-01T03:59:45.485Z,5.80
2022-09-01T04:02:13.414Z,6.40
2022-09-01T04:04:40.935Z,5.93
2022-09-01T04:07:08.322Z,6.18
2022-09-01T04:09:37.450Z,5.82
2022-09-01T04:12:08.383Z,6.13
2022-09-01T04:14:44.841Z,5.28
2022-09-01T04:17:30.739Z,5.65
2022-09-01T04:19:58.523Z,5.95
2022-09-01T04:22:31.351Z,5.75
2022-09-01T04:25:02.421Z,6.00
2022-09-01T04:27:30.097Z,5.60
2022-09-01T04:29:57.887Z,6.05
2022-09-01T04:32:33.766Z,5.43
2022-09-01T04:35:05.543Z,6.43
2022-09-01T04:37:33.136Z,6.95
2022-09-01T04:40:03.970Z,8.13
2022-09-01T04:42:32.838Z,8.27
2022-09-01T04:45:10.761Z,8.52
2022-09-01T04:47:45.686Z,8.52
2022-09-01T04:50:19.563Z,7.22
2022-09-01T04:53:07.235Z,7.13
2022-09-01T04:55:49.842Z,6.38
2022-09-01T04:58:20.939Z,5.60
2022-09-01T05:00:52.566Z,5.55
2022-09-01T05:03:24.784Z,5.32
2022-09-01T05:06:01.433Z,5.15
2022-09-01T05:08:29.372Z,5.70
2022-09-01T05:11:09.947Z,5.65
2022-09-01T05:13:39.907Z,5.60
2022-09-01T05:16:13.519Z,5.22
2022-09-01T05:18:49.151Z,5.10
2022-09-01T05:21:22.504Z,5.47
2022-09-01T05:23:52.054Z,6.30
2022-09-01T05:26:27.142Z,5.18
2022-09-01T05:29:00.172Z,6.00
2022-09-01T05:31:35.252Z,5.07
2022-09-01T05:34:05.053Z,5.68
2022-09-01T05:36:33.942Z,5.40
2022-09-01T05:39:05.655Z,5.00
2022-09-01T05:41:36.052Z,5.50
2022-09-01T05:44:07.327Z,5.25
2022-09-01T05:46:38.004Z,5.15
2022-09-01T05:49:08.647Z,5.07
2022-09-01T05:51:45.618Z,4.70
2022-09-01T05:54:15.047Z,5.18
2022-09-01T05:56:44.894Z,5.60
2022-09-01T05:59:24.927Z,5.40
2022-09-01T06:02:00.788Z,5.15
2022-09-01T06:04:31.427Z,5.07
2022-09-01T06:07:10.250Z,4.90
2022-09-01T06:09:48.782Z,5.15
2022-09-01T06:12:24.116Z,4.82
2022-09-01T06:14:54.316Z,5.20
2022-09-01T06:17:25.536Z,4.88
2022-09-01T06:19:56.494Z,5.22
2022-09-01T06:22:26.708Z,5.35
2022-09-01T06:24:59.452Z,4.80
2022-09-01T06:27:34.446Z,5.15
2022-09-01T06:30:03.263Z,4.22
2022-09-01T06:32:39.114Z,4.38
2022-09-01T06:35:09.445Z,4.80
2022-09-01T06:37:40.920Z,4.68
2022-09-01T06:40:17.463Z,5.93
2022-09-01T06:42:51.241Z,4.30
2022-09-01T06:45:21.612Z,5.22
2022-09-01T06:47:51.364Z,4.45
2022-09-01T06:53:39.264Z,4.32
2022-09-01T06:56:15.290Z,4.63
2022-09-01T06:58:47.794Z,4.28
2022-09-01T07:01:19.843Z,4.05
2022-09-01T07:03:54.065Z,4.88
2022-09-01T07:09:46.264Z,4.53
2022-09-01T07:16:32.089Z,4.85
2022-09-01T07:18:25.923Z,5.78
2022-09-01T07:24:08.058Z,4.70
2022-09-01T07:26:45.387Z,4.75
2022-09-01T07:29:15.452Z,4.13
2022-09-01T07:32:41.193Z,4.20
2022-09-01T07:34:40.135Z,3.75
2022-09-01T07:45:58.827Z,4.40
2022-09-01T07:51:37.242Z,4.30
2022-09-01T07:54:06.954Z,4.65
2022-09-01T07:56:39.491Z,4.68
2022-09-01T07:59:14.561Z,4.93
2022-09-01T08:02:17.914Z,4.18
2022-09-01T08:04:47.636Z,4.30
2022-09-01T08:07:16.592Z,4.57
2022-09-01T08:09:44.849Z,4.75
2022-09-01T08:12:14.376Z,4.40
2022-09-01T08:16:06.782Z,5.18
2022-09-01T08:17:52.100Z,4.00
2022-09-01T08:20:22.270Z,4.70
2022-09-01T08:22:57.212Z,4.90
2022-09-01T08:25:32.952Z,4.47
2022-09-01T08:28:02.616Z,4.35
2022-09-01T08:30:32.882Z,4.50
2022-09-01T08:33:10.233Z,4.32
2022-09-01T08:35:40.905Z,4.18
2022-09-01T08:38:09.586Z,5.35
2022-09-01T08:40:38.415Z,3.72
2022-09-01T08:43:41.067Z,4.22
2022-09-01T08:46:35.313Z,3.88
2022-09-01T08:49:26.630Z,3.55
2022-09-01T08:52:45.020Z,3.80
2022-09-01T08:55:26.252Z,3.80
2022-09-01T08:57:59.921Z,4.00
2022-09-01T09:00:30.699Z,4.18
2022-09-01T09:03:40.504Z,4.07
2022-09-01T09:06:17.278Z,4.55
2022-09-01T09:08:58.919Z,3.70
2022-09-01T09:12:04.475Z,4.03
2022-09-01T09:14:53.160Z,4.15
2022-09-01T09:17:28.210Z,4.10
2022-09-01T09:19:56.827Z,4.47
2022-09-01T09:22:24.135Z,4.53
2022-09-01T09:25:10.193Z,4.05
2022-09-01T09:27:39.302Z,4.40
2022-09-01T09:30:13.628Z,4.25
2022-09-01T09:35:46.198Z,4.35
2022-09-01T09:38:21.768Z,3.50
2022-09-01T09:41:16.445Z,3.90
2022-09-01T09:44:20.508Z,3.45
2022-09-01T09:46:50.552Z,3.58
2022-09-01T09:49:42.214Z,3.40
2022-09-01T09:52:19.446Z,3.90
2022-09-01T09:55:22.713Z,4.00
2022-09-01T09:57:59.288Z,3.20
2022-09-01T10:00:39.324Z,3.13
2022-09-01T10:03:15.826Z,3.63
2022-09-01T10:05:46.111Z,3.78
2022-09-01T10:08:37.883Z,3.38
2022-09-01T10:11:08.312Z,3.70
2022-09-01T10:13:37.023Z,3.70
2022-09-01T10:16:32.493Z,3.10
2022-09-01T10:19:02.716Z,3.15
2022-09-01T10:21:35.893Z,3.75
2022-09-01T10:24:44.690Z,4.00
2022-09-01T10:27:35.896Z,3.30
2022-09-01T10:30:21.263Z,3.90
2022-09-01T10:32:55.242Z,3.28
2022-09-01T10:35:34.419Z,3.15
2022-09-01T10:38:08.309Z,3.05
2022-09-01T10:40:50.119Z,3.13
2022-09-01T10:43:41.948Z,3.17
2022-09-01T10:46:25.924Z,3.65
2022-09-01T10:49:04.395Z,3.20
2022-09-01T10:54:45.243Z,4.38
2022-09-01T10:57:26.788Z,3.70
2022-09-01T11:06:12.633Z,3.47
2022-09-01T11:08:50.997Z,3.15
2022-09-01T11:11:48.016Z,2.80
2022-09-01T11:14:23.109Z,3.47
2022-09-01T11:17:14.581Z,3.10
2022-09-01T11:20:06.485Z,3.60
2022-09-01T11:22:41.217Z,3.20
2022-09-01T11:25:41.511Z,2.65
2022-09-01T11:28:31.869Z,2.63
2022-09-01T11:31:09.003Z,2.90
2022-09-01T11:34:02.078Z,2.80
2022-09-01T11:36:38.044Z,3.17
2022-09-01T11:39:07.562Z,2.72
2022-09-01T11:41:59.692Z,2.90
2022-09-01T11:44:55.287Z,2.55
2022-09-01T11:47:27.571Z,2.90
2022-09-01T11:49:59.837Z,3.08
2022-09-01T11:52:32.421Z,2.38
2022-09-01T11:55:00.248Z,3.58
2022-09-01T11:57:30.694Z,2.35
2022-09-01T12:00:00.419Z,2.25
2022-09-01T12:02:33.861Z,2.40
2022-09-01T12:05:25.888Z,3.00
2022-09-01T12:07:54.460Z,3.65
2022-09-01T12:10:27.797Z,3.70
2022-09-01T12:13:07.477Z,4.53
2022-09-01T12:15:46.432Z,4.50
2022-09-01T12:18:28.154Z,3.72
2022-09-01T12:20:58.527Z,3.65
2022-09-01T12:23:29.547Z,3.67
2022-09-01T12:26:05.588Z,3.70
2022-09-01T12:28:35.632Z,3.28
2022-09-01T12:31:07.634Z,3.58
2022-09-01T12:33:37.296Z,3.40
2022-09-01T12:36:17.592Z,3.10
2022-09-01T12:38:44.902Z,3.05
2022-09-01T12:41:31.795Z,2.45
2022-09-01T12:44:31.722Z,3.42
2022-09-01T12:47:04.467Z,2.67
2022-09-01T12:49:37.145Z,2.10
2022-09-01T12:52:26.633Z,2.20
2022-09-01T12:54:58.774Z,2.10
2022-09-01T12:57:48.792Z,2.35
2022-09-01T13:00:25.229Z,2.03
2022-09-01T13:05:41.868Z,2.25
2022-09-01T13:08:15.145Z,2.33
2022-09-01T13:10:54.276Z,2.40
2022-09-01T13:13:24.575Z,2.30
2022-09-01T13:15:55.040Z,2.28
2022-09-01T13:18:24.243Z,2.28
2022-09-01T13:20:53.480Z,2.10
2022-09-01T13:23:21.852Z,2.33
2022-09-01T13:25:50.073Z,2.67
2022-09-01T13:28:18.736Z,2.60
2022-09-01T13:31:28.524Z,2.50
2022-09-01T13:36:46.222Z,2.60
2022-09-01T13:39:15.713Z,2.65
2022-09-01T13:41:43.598Z,2.00
2022-09-01T13:44:11.426Z,2.15
2022-09-01T13:49:44.952Z,2.50
2022-09-01T13:52:14.971Z,2.45
2022-09-01T13:54:44.601Z,2.13
2022-09-01T13:57:12.474Z,1.92
2022-09-01T13:59:42.134Z,2.17
2022-09-01T14:02:10.674Z,2.60
2022-09-01T14:04:38.336Z,2.10
2022-09-01T14:07:06.341Z,2.15
2022-09-01T14:09:33.874Z,2.55
2022-09-01T14:12:01.409Z,2.00
2022-09-01T14:17:18.244Z,2.30
2022-09-01T14:19:51.908Z,2.03
2022-09-01T14:22:19.384Z,2.15
2022-09-01T14:24:46.836Z,2.85
2022-09-01T14:27:14.227Z,2.30
2022-09-01T14:32:11.171Z,1.95
2022-09-01T14:34:39.860Z,2.67
2022-09-01T14:37:07.629Z,2.50
2022-09-01T14:39:34.951Z,2.40
2022-09-01T14:42:02.282Z,2.20
2022-09-01T14:44:29.621Z,2.40
2022-09-01T14:46:57.388Z,2.30
2022-09-01T14:49:33.219Z,2.47
2022-09-01T14:54:45.635Z,2.85
2022-09-01T14:57:36.646Z,2.53
2022-09-01T15:00:02.060Z,2.33
2022-09-01T15:02:29.474Z,2.20
2022-09-01T15:04:57.191Z,3.33
2022-09-01T15:07:24.655Z,2.60
2022-09-01T15:09:54.331Z,2.35
2022-09-01T15:12:22.694Z,2.05
2022-09-01T15:14:53.070Z,2.90
2022-09-01T15:17:20.425Z,2.47
2022-09-01T15:19:47.797Z,3.00
2022-09-01T15:22:16.731Z,2.67
2022-09-01T15:24:45.525Z,3.08
2022-09-01T15:27:13.067Z,2.42
2022-09-01T15:29:48.028Z,2.95
2022-09-01T15:34:56.650Z,3.65
2022-09-01T15:37:24.120Z,3.78
2022-09-01T15:39:51.614Z,3.80
2022-09-01T15:42:19.223Z,3.60
2022-09-01T15:44:47.607Z,3.83
2022-09-01T15:47:16.337Z,4.47
2022-09-01T15:49:43.956Z,3.75
2022-09-01T15:52:11.399Z,4.07
2022-09-01T15:54:40.123Z,4.55
2022-09-01T15:57:09.223Z,3.90
2022-09-01T15:59:41.211Z,5.25
2022-09-01T16:02:10.654Z,4.40
2022-09-01T16:04:39.181Z,4.40
2022-09-01T16:07:06.604Z,4.05
2022-09-01T16:09:34.220Z,3.78
2022-09-01T16:12:01.733Z,4.57
2022-09-01T16:14:31.939Z,3.90
2022-09-01T16:17:06.276Z,3.88
2022-09-01T16:20:05.696Z,3.70
2022-09-01T16:22:50.062Z,3.70
2022-09-01T16:25:35.757Z,4.30
2022-09-01T16:28:36.014Z,4.13
2022-09-01T16:31:14.266Z,4.70
2022-09-01T16:33:56.598Z,3.70
2022-09-01T16:36:27.099Z,3.92
2022-09-01T16:39:16.548Z,3.83
2022-09-01T16:42:13.664Z,3.70
2022-09-01T16:44:54.279Z,4.38
2022-09-01T16:47:42.639Z,4.18
2022-09-01T16:50:37.792Z,3.72
2022-09-01T16:53:11.862Z,4.20
2022-09-01T16:55:46.450Z,4.87
2022-09-01T16:58:13.727Z,3.67
2022-09-01T17:00:59.123Z,3.70
2022-09-01T17:04:02.171Z,3.92
2022-09-01T17:06:34.385Z,3.90
2022-09-01T17:09:29.909Z,3.83
2022-09-01T17:12:28.457Z,3.20
2022-09-01T17:15:05.460Z,3.55
2022-09-01T17:17:53.238Z,3.10
2022-09-01T17:20:28.836Z,3.50
2022-09-01T17:23:00.909Z,3.90
2022-09-01T17:25:33.189Z,3.90
2022-09-01T17:28:17.014Z,4.05
2022-09-01T17:31:14.636Z,4.20
2022-09-01T17:33:57.039Z,4.47
2022-09-01T17:36:46.123Z,4.93
2022-09-01T17:39:17.138Z,4.82
2022-09-01T17:41:54.935Z,5.00
2022-09-01T17:44:25.154Z,5.70
2022-09-01T17:47:12.900Z,4.97
2022-09-01T17:50:21.847Z,4.97
2022-09-01T17:53:33.839Z,4.95
2022-09-01T17:56:14.894Z,6.32
2022-09-01T17:59:17.554Z,7.47
2022-09-01T18:01:55.134Z,6.82
2022-09-01T18:04:42.644Z,6.82
2022-09-01T18:07:31.352Z,6.13
2022-09-01T18:10:02.827Z,5.80
2022-09-01T18:12:35.949Z,6.10
2022-09-01T18:15:13.839Z,7.85
2022-09-01T18:17:47.098Z,6.68
2022-09-01T18:20:24.940Z,7.05
2022-09-01T18:23:12.532Z,6.40
2022-09-01T18:25:51.276Z,6.47
2022-09-01T18:28:19.802Z,7.43
2022-09-01T18:31:07.928Z,6.45
2022-09-01T18:33:47.128Z,7.10
2022-09-01T18:36:26.445Z,6.65
2022-09-01T18:39:09.695Z,6.50
2022-09-01T18:42:04.821Z,6.05
2022-09-01T18:45:06.497Z,5.47
2022-09-01T18:47:37.903Z,5.72
2022-09-01T18:50:18.525Z,6.07
2022-09-01T18:53:12.798Z,5.28
2022-09-01T18:56:06.245Z,6.25
2022-09-01T18:58:53.478Z,6.65
2022-09-01T19:01:33.244Z,6.28
2022-09-01T19:04:15.425Z,6.85
2022-09-01T19:07:14.936Z,6.32
2022-09-01T19:09:46.206Z,6.32
2022-09-01T19:12:42.504Z,6.78
2022-09-01T19:15:15.864Z,6.88
2022-09-01T19:18:10.224Z,7.60
2022-09-01T19:20:53.215Z,9.32
2022-09-01T19:23:20.640Z,9.68
2022-09-01T19:25:50.569Z,6.80
2022-09-01T19:28:45.675Z,7.00
2022-09-01T19:31:19.341Z,6.40
2022-09-01T19:34:05.642Z,7.63
2022-09-01T19:36:42.909Z,6.63
2022-09-01T19:39:16.175Z,7.15
2022-09-01T19:41:52.604Z,7.13
2022-09-01T19:44:29.239Z,9.13
2022-09-01T19:47:08.260Z,10.07
2022-09-01T19:49:51.556Z,8.57
2022-09-01T19:52:32.652Z,7.25
2022-09-01T19:55:17.356Z,7.53
2022-09-01T19:58:09.146Z,8.27
2022-09-01T20:00:56.632Z,5.93
2022-09-01T20:03:38.677Z,7.07
2022-09-01T20:06:08.404Z,7.13
2022-09-01T20:08:42.026Z,7.43
2022-09-01T20:11:29.763Z,7.35
2022-09-01T20:14:07.832Z,6.75
2022-09-01T20:16:42.735Z,6.80
2022-09-01T20:19:32.758Z,6.03
2022-09-01T20:22:14.219Z,5.80
2022-09-01T20:24:41.989Z,5.82
2022-09-01T20:27:35.060Z,6.00
2022-09-01T20:30:17.074Z,5.82
2022-09-01T20:33:20.366Z,6.43
2022-09-01T20:35:56.633Z,6.88
2022-09-01T20:39:13.326Z,6.38
2022-09-01T20:41:49.429Z,6.30
2022-09-01T20:44:33.373Z,6.70
2022-09-01T20:47:00.882Z,7.05
2022-09-01T20:49:28.376Z,7.18
2022-09-01T20:52:07.560Z,7.50
2022-09-01T20:54:46.831Z,7.47
2022-09-01T20:57:43.237Z,7.90
2022-09-01T21:00:15.688Z,6.90
2022-09-01T21:03:18.417Z,7.57
2022-09-01T21:06:30.552Z,7.55
2022-09-01T21:09:15.681Z,7.13
2022-09-01T21:11:50.856Z,10.40
2022-09-01T21:14:37.039Z,10.45
2022-09-01T21:17:20.863Z,12.80
2022-09-01T21:20:14.252Z,11.65
2022-09-01T21:22:41.716Z,8.10
2022-09-01T21:25:11.417Z,7.07
2022-09-01T21:27:45.956Z,5.70
2022-09-01T21:30:16.271Z,6.00
2022-09-01T21:32:44.144Z,5.53
2022-09-01T21:35:14.953Z,5.65
2022-09-01T21:37:42.351Z,6.05
2022-09-01T21:40:11.571Z,5.47
2022-09-01T21:42:40.795Z,5.28
2022-09-01T21:45:12.328Z,5.80
2022-09-01T21:47:41.148Z,5.55
2022-09-01T21:50:09.716Z,6.00
2022-09-01T21:52:36.991Z,6.00
2022-09-01T21:55:05.541Z,5.95
2022-09-01T21:57:32.814Z,5.63
2022-09-01T22:00:14.493Z,6.03
2022-09-01T22:02:46.530Z,5.50
2022-09-01T22:05:14.598Z,5.63
2022-09-01T22:07:45.621Z,5.43
2022-09-01T22:10:18.123Z,5.72
2022-09-01T22:12:47.484Z,5.80
2022-09-01T22:15:19.406Z,5.68
2022-09-01T22:17:47.619Z,5.00
2022-09-01T22:20:19.356Z,5.47
2022-09-01T22:22:47.427Z,5.85
2022-09-01T22:25:19.595Z,6.13
2022-09-01T22:27:47.428Z,6.40
2022-09-01T22:30:15.748Z,6.53
2022-09-01T22:32:45.636Z,6.88
2022-09-01T22:35:16.392Z,7.40
2022-09-01T22:37:43.988Z,6.40
2022-09-01T22:40:12.799Z,6.22
2022-09-01T22:42:40.308Z,6.70
2022-09-01T22:45:10.077Z,6.43
2022-09-01T22:47:39.678Z,6.53
2022-09-01T22:50:11.288Z,7.25
2022-09-01T22:52:51.918Z,6.85
2022-09-01T22:55:19.927Z,7.20
2022-09-01T22:57:47.413Z,7.15
2022-09-01T23:00:15.168Z,7.88
2022-09-01T23:02:42.522Z,6.97
2022-09-01T23:05:10.207Z,8.25
2022-09-01T23:07:39.586Z,7.65
2022-09-01T23:10:09.038Z,8.02
2022-09-01T23:12:36.362Z,7.57
2022-09-01T23:15:04.633Z,8.98
2022-09-01T23:17:33.704Z,7.88
2022-09-01T23:20:02.549Z,8.32
2022-09-01T23:22:31.437Z,7.85
2022-09-01T23:25:00.007Z,8.52
2022-09-01T23:27:27.309Z,7.38
2022-09-01T23:29:55.397Z,8.48
2022-09-01T23:32:22.943Z,8.52
2022-09-01T23:34:52.348Z,8.88
2022-09-01T23:37:20.121Z,8.30
2022-09-01T23:39:47.473Z,8.38
2022-09-01T23:42:14.775Z,9.15
2022-09-01T23:44:43.169Z,9.27
2022-09-01T23:47:10.780Z,9.90
2022-09-01T23:49:41.924Z,10.18
2022-09-01T23:52:11.694Z,9.93
2022-09-01T23:54:39.124Z,11.15
2022-09-01T23:57:06.685Z,11.40
2022-09-01T23:59:34.055Z,11.20
